Porter, North Carolina
Current Conditions -  °F | °C
As of 6:35 PM on Wednesday 22 Oct 2014 (Local Time) from KVUJ Reporting Station
Clear Clear  
Wind Chill: 58°   Ceiling: Unl
Heat Index: 58°   Visibility: 10mi
Dew Point: 41°   Wind: 10mph
Humidity: 53%   Direction: 340°NNW
Pressure: 30.08"   Gusts: 16mph
Location:  35.2152°N, 80.1663°W
Report Text: KVUJ 222235Z AUTO 34009G14KT 290V360 10SM CLR 15/05 A3008 RMK AO2 T01450050
Loading
Personal Weather Stations






























Interactive Weather Map
Tropical Storm Tracking
New forecast layout! Learn more

10-Day Weather Forecast

Advertisements
Track Severe Weather on mobile